createdAt,value
2022-10-15T00:08:46.961Z,0.00
2022-10-15T00:09:50.136Z,0.00
2022-10-15T00:10:45.537Z,0.00
2022-10-15T00:23:52.715Z,0.00
2022-10-15T00:43:52.630Z,0.00
2022-10-15T00:44:51.952Z,0.00
2022-10-15T00:45:51.907Z,0.00
2022-10-15T00:46:51.880Z,0.00
2022-10-15T00:47:51.847Z,0.00
2022-10-15T00:48:51.911Z,0.00
2022-10-15T00:49:51.850Z,0.00
2022-10-15T00:50:51.827Z,0.00
2022-10-15T00:51:51.910Z,0.00
2022-10-15T00:52:51.798Z,0.00
2022-10-15T00:53:51.778Z,0.00
2022-10-15T00:54:51.778Z,0.00
2022-10-15T00:55:51.791Z,0.00
2022-10-15T00:56:51.744Z,0.00
2022-10-15T00:57:51.770Z,0.00
2022-10-15T00:58:51.712Z,0.00
2022-10-15T00:59:51.711Z,0.00
2022-10-15T01:00:51.843Z,0.00
2022-10-15T01:01:51.715Z,0.00
2022-10-15T01:02:51.652Z,0.00
2022-10-15T01:03:51.686Z,0.00
2022-10-15T01:04:51.657Z,0.00
2022-10-15T01:05:51.649Z,0.00
2022-10-15T01:06:51.603Z,0.00
2022-10-15T01:07:51.612Z,0.00
2022-10-15T01:08:51.622Z,0.00
2022-10-15T01:09:51.588Z,0.00
2022-10-15T01:10:51.577Z,0.00
2022-10-15T01:11:51.561Z,0.00
2022-10-15T01:12:51.629Z,0.00
2022-10-15T01:13:51.545Z,0.00
2022-10-15T01:14:51.520Z,0.00
2022-10-15T01:15:51.501Z,0.00
2022-10-15T01:16:51.484Z,0.00
2022-10-15T01:17:51.496Z,0.00
2022-10-15T01:18:51.483Z,0.00
2022-10-15T01:19:51.444Z,0.00
2022-10-15T01:20:51.414Z,0.00
2022-10-15T01:21:51.430Z,0.00
2022-10-15T01:22:51.407Z,0.00
2022-10-15T01:23:51.386Z,0.00
2022-10-15T01:24:51.393Z,0.00
2022-10-15T01:25:51.393Z,0.00
2022-10-15T01:26:51.343Z,0.00
2022-10-15T01:27:51.398Z,0.00
2022-10-15T01:28:51.328Z,0.00
2022-10-15T01:29:51.287Z,0.00
2022-10-15T01:30:51.390Z,0.00
2022-10-15T01:31:51.252Z,0.00
2022-10-15T01:32:51.245Z,0.00
2022-10-15T01:33:51.249Z,0.00
2022-10-15T01:34:51.402Z,0.00
2022-10-15T01:35:51.251Z,0.00
2022-10-15T01:36:51.260Z,0.00
2022-10-15T01:37:51.182Z,0.00
2022-10-15T01:38:51.232Z,0.00
2022-10-15T01:39:51.227Z,0.00
2022-10-15T01:40:51.228Z,0.00
2022-10-15T01:41:51.175Z,0.00
2022-10-15T01:42:51.166Z,0.00
2022-10-15T01:43:51.121Z,0.00
2022-10-15T01:44:51.109Z,0.00
2022-10-15T01:45:51.116Z,0.00
2022-10-15T01:46:51.103Z,0.00
2022-10-15T01:47:51.121Z,0.00
2022-10-15T01:48:51.039Z,0.00
2022-10-15T01:49:51.021Z,0.00
2022-10-15T01:50:51.015Z,0.00
2022-10-15T01:51:51.015Z,0.00
2022-10-15T01:52:51.076Z,0.00
2022-10-15T01:53:51.009Z,0.00
2022-10-15T01:54:51.159Z,0.00
2022-10-15T01:55:50.997Z,0.00
2022-10-15T01:56:50.968Z,0.00
2022-10-15T01:57:50.960Z,0.00
2022-10-15T01:58:50.954Z,0.00
2022-10-15T01:59:50.991Z,0.00
2022-10-15T02:00:50.995Z,0.00
2022-10-15T02:01:50.961Z,0.00
2022-10-15T02:02:50.883Z,0.00
2022-10-15T02:03:50.845Z,0.00
2022-10-15T02:04:50.872Z,0.00
2022-10-15T02:05:50.850Z,0.00
2022-10-15T02:06:50.818Z,0.00
2022-10-15T02:07:50.839Z,0.00
2022-10-15T02:08:50.802Z,0.00
2022-10-15T02:09:50.758Z,0.00
2022-10-15T02:10:50.765Z,0.00
2022-10-15T02:11:50.747Z,0.00
2022-10-15T02:12:50.733Z,0.00
2022-10-15T02:13:50.736Z,0.00
2022-10-15T02:14:50.726Z,0.00
2022-10-15T02:15:50.698Z,0.00
2022-10-15T02:16:50.704Z,0.00
2022-10-15T02:17:50.660Z,0.00
2022-10-15T02:18:50.694Z,0.00
2022-10-15T02:19:50.694Z,0.00
2022-10-15T02:20:50.675Z,0.00
2022-10-15T02:21:50.627Z,0.00
2022-10-15T02:22:50.610Z,0.00
2022-10-15T02:23:50.625Z,0.00
2022-10-15T02:24:54.587Z,0.00
2022-10-15T02:25:50.601Z,0.00
2022-10-15T02:26:50.539Z,0.00
2022-10-15T02:27:50.584Z,0.00
2022-10-15T02:28:50.527Z,0.00
2022-10-15T02:29:50.507Z,0.00
2022-10-15T02:30:50.498Z,0.00
2022-10-15T02:31:50.500Z,0.00
2022-10-15T02:32:50.472Z,0.00
2022-10-15T02:33:50.456Z,0.00
2022-10-15T02:34:50.459Z,0.00
2022-10-15T02:35:50.452Z,0.00
2022-10-15T02:36:50.410Z,0.00
2022-10-15T02:37:50.510Z,0.00
2022-10-15T02:38:50.415Z,0.00
2022-10-15T02:39:50.389Z,0.00
2022-10-15T02:40:50.381Z,0.00
2022-10-15T02:41:50.360Z,0.00
2022-10-15T02:42:50.336Z,0.00
2022-10-15T02:43:50.317Z,0.00
2022-10-15T02:44:50.349Z,0.00
2022-10-15T02:45:50.345Z,0.00
2022-10-15T02:46:50.309Z,0.00
2022-10-15T02:47:50.250Z,0.00
2022-10-15T02:48:50.243Z,0.00
2022-10-15T02:49:50.248Z,0.00
2022-10-15T02:50:50.221Z,0.00
2022-10-15T02:51:50.196Z,0.00
2022-10-15T02:52:50.176Z,0.00
2022-10-15T02:53:50.195Z,0.00
2022-10-15T02:54:50.166Z,0.00
2022-10-15T02:55:50.192Z,0.00
2022-10-15T02:56:50.189Z,0.00
2022-10-15T02:57:50.127Z,0.00
2022-10-15T02:58:50.111Z,0.00
2022-10-15T02:59:50.173Z,0.00
2022-10-15T03:00:50.208Z,0.00
2022-10-15T03:01:50.112Z,0.00
2022-10-15T03:02:50.092Z,0.00
2022-10-15T03:03:50.151Z,0.00
2022-10-15T03:04:50.044Z,0.00
2022-10-15T03:05:50.056Z,0.00
2022-10-15T03:06:50.051Z,0.00
2022-10-15T03:07:49.984Z,0.00
2022-10-15T03:08:50.038Z,0.00
2022-10-15T03:09:49.968Z,0.00
2022-10-15T03:10:50.000Z,0.00
2022-10-15T03:11:49.990Z,0.00
2022-10-15T03:12:49.905Z,0.00
2022-10-15T03:13:49.901Z,0.00
2022-10-15T03:14:49.883Z,0.00
2022-10-15T03:15:49.975Z,0.00
2022-10-15T03:16:49.887Z,0.00
2022-10-15T03:17:49.843Z,0.00
2022-10-15T03:18:49.874Z,0.00
2022-10-15T03:19:49.915Z,0.00
2022-10-15T03:20:49.818Z,0.00
2022-10-15T03:21:49.877Z,0.00
2022-10-15T03:22:49.805Z,0.00
2022-10-15T03:23:49.805Z,0.00
2022-10-15T03:24:49.805Z,0.00
2022-10-15T03:25:48.742Z,0.00
2022-10-15T03:26:49.727Z,0.00
2022-10-15T03:27:49.758Z,0.00
2022-10-15T03:28:49.781Z,0.00
2022-10-15T03:29:49.680Z,0.00
2022-10-15T03:30:49.727Z,0.00
2022-10-15T03:31:48.660Z,0.00
2022-10-15T03:32:49.665Z,0.00
2022-10-15T03:33:49.689Z,0.00
2022-10-15T03:34:49.647Z,0.00
2022-10-15T03:35:49.609Z,0.00
2022-10-15T03:36:49.607Z,0.00
2022-10-15T03:37:49.595Z,0.00
2022-10-15T03:38:49.599Z,0.00
2022-10-15T03:39:49.594Z,0.00
2022-10-15T03:40:49.540Z,0.00
2022-10-15T03:41:49.553Z,0.00
2022-10-15T03:42:49.752Z,0.00
2022-10-15T03:43:49.500Z,0.00
2022-10-15T03:44:51.617Z,0.00
2022-10-15T03:45:49.446Z,0.00
2022-10-15T03:46:49.455Z,0.00
2022-10-15T03:47:49.471Z,0.00
2022-10-15T03:48:49.403Z,0.00
2022-10-15T03:49:49.382Z,0.00
2022-10-15T03:50:49.425Z,0.00
2022-10-15T03:51:49.374Z,0.00
2022-10-15T03:52:49.393Z,0.00
2022-10-15T03:53:49.320Z,0.00
2022-10-15T03:54:49.387Z,0.00
2022-10-15T03:55:49.320Z,0.00
2022-10-15T03:56:49.338Z,0.00
2022-10-15T03:57:49.281Z,0.00
2022-10-15T03:58:49.269Z,0.00
2022-10-15T03:59:49.315Z,0.00
2022-10-15T04:00:49.346Z,0.00
2022-10-15T04:01:49.268Z,0.00
2022-10-15T04:02:49.210Z,0.00
2022-10-15T04:03:49.194Z,0.00
2022-10-15T04:04:49.190Z,0.00
2022-10-15T04:05:53.786Z,0.00
2022-10-15T04:06:52.247Z,0.00
2022-10-15T04:07:56.193Z,0.00
2022-10-15T04:08:49.226Z,0.00
2022-10-15T04:09:49.113Z,0.00
2022-10-15T04:10:50.255Z,0.00
2022-10-15T04:11:49.105Z,0.00
2022-10-15T04:12:49.094Z,0.00
2022-10-15T04:17:38.127Z,0.00
2022-10-15T04:21:19.842Z,0.00
2022-10-15T04:22:19.091Z,0.00
2022-10-15T04:23:21.160Z,0.00
2022-10-15T04:25:32.413Z,0.00
2022-10-15T04:38:46.985Z,0.00
2022-10-15T04:45:37.249Z,0.00
2022-10-15T04:46:36.498Z,0.00
2022-10-15T04:47:36.532Z,0.00
2022-10-15T04:48:52.958Z,0.00
2022-10-15T04:49:36.481Z,0.00
2022-10-15T04:52:05.200Z,0.00
2022-10-15T04:52:49.917Z,0.00
2022-10-15T04:53:53.004Z,0.00
2022-10-15T05:00:57.958Z,0.00
2022-10-15T05:02:21.095Z,0.00
2022-10-15T05:04:15.056Z,0.00
2022-10-15T05:05:12.627Z,0.00
2022-10-15T05:06:12.627Z,0.00
2022-10-15T05:17:44.985Z,0.00
2022-10-15T05:18:26.425Z,0.00
2022-10-15T05:19:32.082Z,0.00
2022-10-15T05:20:26.430Z,0.00
2022-10-15T05:21:26.415Z,0.00
2022-10-15T05:22:26.703Z,0.00
2022-10-15T05:23:57.493Z,0.00
2022-10-15T05:24:26.352Z,0.00
2022-10-15T05:25:28.579Z,0.00
2022-10-15T05:26:26.368Z,0.00
2022-10-15T05:27:26.318Z,0.00
2022-10-15T05:28:26.393Z,0.00
2022-10-15T05:29:30.942Z,0.00
2022-10-15T05:30:47.741Z,0.00
2022-10-15T05:31:26.266Z,0.00
2022-10-15T05:35:18.478Z,0.00
2022-10-15T05:35:56.304Z,0.00
2022-10-15T05:36:58.418Z,0.00
2022-10-15T05:40:54.894Z,0.00
2022-10-15T05:41:28.358Z,0.00
2022-10-15T05:43:42.045Z,0.00
2022-10-15T05:44:43.035Z,0.00
2022-10-15T05:47:25.562Z,0.00
2022-10-15T05:48:26.044Z,0.00
2022-10-15T05:49:47.036Z,0.00
2022-10-15T05:50:26.023Z,0.00
2022-10-15T05:51:25.983Z,0.00
2022-10-15T05:54:17.417Z,0.00
2022-10-15T05:54:42.672Z,0.00
2022-10-15T05:59:53.431Z,0.00
2022-10-15T06:01:15.994Z,0.00
2022-10-15T06:14:41.898Z,5.62
2022-10-15T06:15:20.631Z,5.62
2022-10-15T06:21:02.377Z,5.62
2022-10-15T06:21:30.607Z,5.62
2022-10-15T06:22:33.662Z,5.62
2022-10-15T06:23:30.583Z,5.62
2022-10-15T06:24:38.412Z,5.62
2022-10-15T06:33:35.646Z,16.88
2022-10-15T06:38:33.723Z,28.12
2022-10-15T06:39:34.696Z,28.12
2022-10-15T06:40:34.666Z,28.12
2022-10-15T06:41:34.661Z,28.12
2022-10-15T06:42:34.603Z,28.12
2022-10-15T06:43:35.371Z,28.12
2022-10-15T06:44:34.644Z,28.12
2022-10-15T06:45:34.609Z,28.12
2022-10-15T06:46:34.607Z,28.12
2022-10-15T06:47:34.570Z,28.12
2022-10-15T06:48:34.536Z,28.12
2022-10-15T06:49:34.581Z,33.75
2022-10-15T06:50:34.569Z,33.75
2022-10-15T06:51:34.496Z,33.75
2022-10-15T06:52:34.577Z,33.75
2022-10-15T06:53:34.472Z,33.75
2022-10-15T06:54:34.484Z,33.75
2022-10-15T06:55:34.443Z,33.75
2022-10-15T06:56:34.440Z,33.75
2022-10-15T06:57:34.433Z,39.38
2022-10-15T06:58:34.413Z,39.38
2022-10-15T06:59:37.132Z,39.38
2022-10-15T07:01:35.278Z,39.38
2022-10-15T07:02:34.319Z,39.38
2022-10-15T07:03:34.355Z,39.38
2022-10-15T07:04:34.336Z,39.38
2022-10-15T07:05:34.670Z,39.38
2022-10-15T07:06:34.267Z,39.38
2022-10-15T07:07:34.274Z,39.38
2022-10-15T07:08:34.251Z,39.38
2022-10-15T07:09:34.269Z,39.38
2022-10-15T07:10:34.219Z,39.38
2022-10-15T07:11:34.234Z,39.38
2022-10-15T07:12:34.187Z,45.00
2022-10-15T07:13:34.227Z,45.00
2022-10-15T07:14:37.532Z,45.00
2022-10-15T07:15:34.182Z,50.62
2022-10-15T07:16:34.147Z,50.62
2022-10-15T07:17:34.138Z,45.00
2022-10-15T07:18:34.146Z,45.00
2022-10-15T07:19:34.099Z,45.00
2022-10-15T07:20:34.158Z,45.00
2022-10-15T07:21:34.081Z,45.00
2022-10-15T07:22:34.067Z,50.62
2022-10-15T07:23:34.075Z,50.62
2022-10-15T07:24:34.029Z,50.62
2022-10-15T07:25:34.039Z,56.25
2022-10-15T07:26:34.005Z,56.25
2022-10-15T07:27:33.984Z,56.25
2022-10-15T07:28:34.033Z,56.25
2022-10-15T07:29:34.000Z,50.62
2022-10-15T07:30:33.957Z,50.62
2022-10-15T07:31:33.983Z,56.25
2022-10-15T07:32:33.922Z,56.25
2022-10-15T07:33:33.913Z,56.25
2022-10-15T07:34:33.931Z,50.62
2022-10-15T07:35:33.953Z,50.62
2022-10-15T07:36:33.876Z,50.62
2022-10-15T07:37:33.850Z,56.25
2022-10-15T07:38:33.895Z,61.88
2022-10-15T07:39:35.564Z,56.25
2022-10-15T07:40:33.850Z,56.25
2022-10-15T07:41:33.799Z,61.88
2022-10-15T07:42:33.785Z,67.50
2022-10-15T07:43:33.780Z,67.50
2022-10-15T07:44:33.769Z,73.12
2022-10-15T07:45:33.759Z,73.12
2022-10-15T07:46:33.738Z,61.88
2022-10-15T07:47:34.759Z,56.25
2022-10-15T07:48:33.730Z,50.62
2022-10-15T07:49:55.822Z,50.62
2022-10-15T07:50:35.522Z,50.62
2022-10-15T07:51:33.672Z,50.62
2022-10-15T07:52:33.647Z,56.25
2022-10-15T07:53:33.653Z,61.88
2022-10-15T07:54:33.641Z,61.88
2022-10-15T07:55:33.644Z,67.50
2022-10-15T07:56:33.597Z,61.88
2022-10-15T07:57:33.586Z,67.50
2022-10-15T07:58:33.588Z,67.50
2022-10-15T07:59:33.566Z,67.50
2022-10-15T08:01:32.567Z,56.25
2022-10-15T08:02:33.552Z,61.88
2022-10-15T08:03:33.563Z,56.25
2022-10-15T08:04:33.518Z,50.62
2022-10-15T08:05:33.548Z,61.88
2022-10-15T08:06:33.472Z,61.88
2022-10-15T08:07:33.456Z,61.88
2022-10-15T08:08:33.492Z,61.88
2022-10-15T08:09:33.514Z,61.88
2022-10-15T08:10:33.464Z,67.50
2022-10-15T08:11:33.418Z,67.50
2022-10-15T08:12:33.420Z,73.12
2022-10-15T08:13:33.431Z,73.12
2022-10-15T08:14:54.714Z,67.50
2022-10-15T08:15:33.402Z,67.50
2022-10-15T08:16:33.408Z,67.50
2022-10-15T08:17:33.325Z,73.12
2022-10-15T08:18:33.380Z,67.50
2022-10-15T08:19:33.286Z,61.88
2022-10-15T08:20:33.291Z,61.88
2022-10-15T08:21:33.268Z,61.88
2022-10-15T08:22:33.253Z,61.88
2022-10-15T08:23:33.294Z,61.88
2022-10-15T08:24:33.257Z,61.88
2022-10-15T08:25:33.224Z,61.88
2022-10-15T08:26:33.211Z,61.88
2022-10-15T08:27:33.364Z,67.50
2022-10-15T08:28:33.259Z,73.12
2022-10-15T08:29:33.178Z,73.12
2022-10-15T08:30:33.161Z,78.75
2022-10-15T08:31:33.138Z,84.38
2022-10-15T08:32:33.161Z,84.38
2022-10-15T08:33:33.102Z,78.75
2022-10-15T08:34:33.124Z,90.00
2022-10-15T08:35:33.185Z,84.38
2022-10-15T08:36:33.122Z,73.12
2022-10-15T08:37:33.052Z,67.50
2022-10-15T08:38:33.064Z,61.88
2022-10-15T08:39:33.056Z,61.88
2022-10-15T08:40:33.073Z,61.88
2022-10-15T08:41:32.992Z,67.50
2022-10-15T08:42:32.998Z,78.75
2022-10-15T08:43:32.991Z,78.75
2022-10-15T08:44:32.979Z,67.50
2022-10-15T08:45:32.999Z,67.50
2022-10-15T08:46:32.946Z,67.50
2022-10-15T08:47:32.924Z,67.50
2022-10-15T08:48:54.762Z,73.12
2022-10-15T08:49:32.945Z,73.12
2022-10-15T08:50:32.892Z,73.12
2022-10-15T08:51:32.872Z,61.88
2022-10-15T08:52:32.911Z,67.50
2022-10-15T08:53:32.843Z,67.50
2022-10-15T08:54:32.828Z,90.00
2022-10-15T08:55:33.073Z,101.25
2022-10-15T08:56:53.830Z,95.62
2022-10-15T08:57:32.829Z,90.00
2022-10-15T08:58:36.918Z,95.62
2022-10-15T08:59:32.827Z,73.12
2022-10-15T09:00:32.801Z,61.88
2022-10-15T09:01:32.753Z,50.62
2022-10-15T09:02:32.811Z,56.25
2022-10-15T09:03:32.718Z,61.88
2022-10-15T09:04:32.733Z,78.75
2022-10-15T09:05:32.687Z,78.75
2022-10-15T09:06:53.674Z,56.25
2022-10-15T09:07:32.653Z,56.25
2022-10-15T09:08:34.969Z,50.62
2022-10-15T09:09:33.680Z,50.62
2022-10-15T09:10:32.635Z,50.62
2022-10-15T09:11:55.889Z,45.00
2022-10-15T09:12:32.605Z,45.00
2022-10-15T09:14:13.181Z,45.00
2022-10-15T09:14:32.563Z,45.00
2022-10-15T09:15:32.561Z,45.00
2022-10-15T09:16:32.533Z,45.00
2022-10-15T09:17:32.549Z,67.50
2022-10-15T09:18:32.524Z,95.62
2022-10-15T09:19:32.554Z,106.88
2022-10-15T09:20:32.483Z,101.25
2022-10-15T09:21:32.985Z,101.25
2022-10-15T09:22:32.645Z,95.62
2022-10-15T09:23:54.641Z,95.62
2022-10-15T09:24:32.451Z,95.62
2022-10-15T09:25:32.420Z,90.00
2022-10-15T09:26:32.409Z,95.62
2022-10-15T09:27:32.393Z,101.25
2022-10-15T09:28:32.408Z,118.12
2022-10-15T09:29:32.396Z,140.62
2022-10-15T09:30:53.342Z,112.50
2022-10-15T09:31:32.332Z,118.12
2022-10-15T09:32:54.551Z,112.50
2022-10-15T09:33:32.313Z,129.38
2022-10-15T09:34:32.319Z,118.12
2022-10-15T09:35:32.302Z,101.25
2022-10-15T09:36:32.289Z,112.50
2022-10-15T09:37:53.277Z,95.62
2022-10-15T09:38:34.040Z,78.75
2022-10-15T09:39:32.271Z,61.88
2022-10-15T09:40:32.217Z,73.12
2022-10-15T09:41:32.234Z,61.88
2022-10-15T09:42:32.204Z,61.88
2022-10-15T09:43:33.022Z,61.88
2022-10-15T09:44:32.190Z,61.88
2022-10-15T09:45:33.429Z,61.88
2022-10-15T09:46:32.133Z,50.62
2022-10-15T09:48:45.072Z,73.12
2022-10-15T09:49:44.835Z,73.12
2022-10-15T09:50:44.826Z,67.50
2022-10-15T09:51:44.865Z,78.75
2022-10-15T09:52:44.836Z,73.12
2022-10-15T09:53:44.805Z,67.50
2022-10-15T09:54:44.800Z,67.50
2022-10-15T09:55:44.749Z,67.50
2022-10-15T09:56:44.771Z,67.50
2022-10-15T09:57:44.719Z,67.50
2022-10-15T09:58:44.732Z,67.50
2022-10-15T09:59:44.699Z,67.50
2022-10-15T10:00:44.718Z,61.88
2022-10-15T10:01:50.473Z,67.50
2022-10-15T10:02:44.686Z,61.88
2022-10-15T10:03:44.712Z,50.62
2022-10-15T10:04:49.090Z,56.25
2022-10-15T10:16:09.524Z,112.50
2022-10-15T10:17:10.515Z,95.62
2022-10-15T10:18:10.506Z,123.75
2022-10-15T10:19:10.502Z,118.12
2022-10-15T10:20:10.499Z,112.50
2022-10-15T10:21:10.457Z,123.75
2022-10-15T10:22:10.472Z,118.12
2022-10-15T10:23:10.431Z,118.12
2022-10-15T10:24:10.432Z,112.50
2022-10-15T10:25:10.396Z,95.62
2022-10-15T10:26:10.409Z,84.38
2022-10-15T10:27:10.441Z,84.38
2022-10-15T10:28:10.362Z,78.75
2022-10-15T10:29:22.287Z,84.38
2022-10-15T10:30:10.345Z,78.75
2022-10-15T10:31:10.321Z,73.12
2022-10-15T10:32:10.391Z,73.12
2022-10-15T10:33:10.298Z,67.50
2022-10-15T10:34:10.311Z,67.50
2022-10-15T10:35:10.267Z,67.50
2022-10-15T10:37:10.271Z,67.50
2022-10-15T10:38:10.228Z,67.50
2022-10-15T10:39:10.229Z,50.62
2022-10-15T10:40:10.203Z,56.25
2022-10-15T10:41:10.209Z,56.25
2022-10-15T10:42:10.177Z,67.50
2022-10-15T10:43:10.192Z,67.50
2022-10-15T10:44:10.175Z,61.88
2022-10-15T10:45:12.868Z,67.50
2022-10-15T10:46:10.138Z,67.50
2022-10-15T10:47:10.103Z,78.75
2022-10-15T10:48:10.094Z,67.50
2022-10-15T10:49:10.092Z,61.88
2022-10-15T10:50:10.173Z,84.38
2022-10-15T10:51:11.133Z,101.25
2022-10-15T10:52:10.038Z,106.88
2022-10-15T10:53:10.032Z,140.62
2022-10-15T10:54:10.666Z,95.62
2022-10-15T10:55:11.873Z,84.38
2022-10-15T10:56:12.575Z,78.75
2022-10-15T10:57:13.403Z,101.25
2022-10-15T10:58:09.967Z,118.12
2022-10-15T10:59:09.968Z,123.75
2022-10-15T11:00:09.947Z,90.00
2022-10-15T11:01:09.977Z,84.38
2022-10-15T11:02:09.929Z,101.25
2022-10-15T11:03:09.882Z,118.12
2022-10-15T11:04:11.103Z,129.38
2022-10-15T11:05:09.863Z,157.50
2022-10-15T11:06:09.877Z,157.50
2022-10-15T11:07:09.882Z,157.50
2022-10-15T11:08:09.884Z,157.50
2022-10-15T11:09:09.810Z,157.50
2022-10-15T11:10:09.819Z,157.50
2022-10-15T11:11:09.807Z,140.62
2022-10-15T11:12:09.789Z,123.75
2022-10-15T11:14:09.742Z,129.38
2022-10-15T11:15:09.745Z,135.00
2022-10-15T11:16:09.727Z,118.12
2022-10-15T11:17:09.709Z,129.38
2022-10-15T11:18:09.713Z,112.50
2022-10-15T11:19:18.683Z,112.50
2022-10-15T11:21:09.637Z,101.25
2022-10-15T11:22:09.770Z,101.25
2022-10-15T11:23:09.609Z,118.12
2022-10-15T11:24:09.613Z,118.12
2022-10-15T11:25:09.604Z,112.50
2022-10-15T11:26:09.673Z,90.00
2022-10-15T11:27:11.680Z,90.00
2022-10-15T11:28:09.547Z,78.75
2022-10-15T11:29:09.544Z,67.50
2022-10-15T11:30:09.519Z,78.75
2022-10-15T11:31:09.639Z,67.50
2022-10-15T11:32:15.179Z,61.88
2022-10-15T11:33:10.037Z,50.62
2022-10-15T11:34:09.522Z,39.38
2022-10-15T11:35:09.479Z,33.75
2022-10-15T11:36:09.436Z,50.62
2022-10-15T11:37:09.423Z,73.12
2022-10-15T11:38:09.424Z,106.88
2022-10-15T11:39:09.417Z,129.38
2022-10-15T11:40:09.439Z,146.25
2022-10-15T11:41:09.390Z,112.50
2022-10-15T11:42:09.377Z,90.00
2022-10-15T11:43:09.390Z,90.00
2022-10-15T11:44:09.366Z,101.25
2022-10-15T11:45:09.373Z,101.25
2022-10-15T11:46:09.313Z,112.50
2022-10-15T11:47:09.294Z,118.12
2022-10-15T11:48:09.285Z,106.88
2022-10-15T11:49:09.640Z,95.62
2022-10-15T11:50:09.254Z,95.62
2022-10-15T11:51:09.246Z,112.50
2022-10-15T11:52:09.226Z,112.50
2022-10-15T11:53:09.207Z,101.25
2022-10-15T11:54:09.220Z,90.00
2022-10-15T11:55:09.189Z,73.12
2022-10-15T11:56:09.228Z,61.88
2022-10-15T11:57:09.155Z,61.88
2022-10-15T11:58:09.155Z,61.88
2022-10-15T11:59:09.171Z,61.88
2022-10-15T12:00:09.175Z,67.50
2022-10-15T12:01:09.101Z,56.25
2022-10-15T12:02:09.104Z,56.25
2022-10-15T12:03:09.155Z,67.50
2022-10-15T12:04:09.121Z,84.38
2022-10-15T12:05:09.055Z,78.75
2022-10-15T12:06:09.090Z,78.75
2022-10-15T12:07:09.033Z,67.50
2022-10-15T12:08:09.022Z,50.62
2022-10-15T12:09:09.051Z,50.62
2022-10-15T12:10:08.994Z,50.62
2022-10-15T12:11:08.998Z,56.25
2022-10-15T12:12:08.985Z,50.62
2022-10-15T12:13:08.945Z,73.12
2022-10-15T12:14:08.965Z,78.75
2022-10-15T12:15:08.910Z,90.00
2022-10-15T12:16:08.917Z,90.00
2022-10-15T12:18:07.877Z,101.25
2022-10-15T12:19:08.881Z,90.00
2022-10-15T12:20:08.844Z,73.12
2022-10-15T12:21:08.832Z,61.88
2022-10-15T12:22:08.820Z,84.38
2022-10-15T12:23:08.821Z,78.75
2022-10-15T12:24:08.797Z,78.75
2022-10-15T12:25:08.788Z,84.38
2022-10-15T12:26:08.786Z,84.38
2022-10-15T12:27:08.757Z,73.12
2022-10-15T12:28:08.738Z,67.50
2022-10-15T12:29:08.749Z,67.50
2022-10-15T12:30:08.712Z,50.62
2022-10-15T12:31:08.693Z,45.00
2022-10-15T12:32:08.691Z,39.38
2022-10-15T12:33:08.684Z,39.38
2022-10-15T12:34:08.652Z,50.62
2022-10-15T12:35:08.711Z,61.88
2022-10-15T12:36:08.734Z,67.50
2022-10-15T12:37:08.631Z,73.12
2022-10-15T12:38:08.605Z,67.50
2022-10-15T12:39:17.546Z,56.25
2022-10-15T12:40:08.582Z,50.62
2022-10-15T12:41:08.565Z,45.00
2022-10-15T12:42:08.580Z,50.62
2022-10-15T12:43:08.572Z,50.62
2022-10-15T12:44:08.541Z,50.62
2022-10-15T12:45:08.540Z,50.62
2022-10-15T12:46:08.496Z,50.62
2022-10-15T12:47:08.487Z,56.25
2022-10-15T12:48:08.490Z,50.62
2022-10-15T12:49:08.458Z,39.38
2022-10-15T12:50:08.462Z,39.38
2022-10-15T12:51:08.450Z,39.38
2022-10-15T12:52:08.409Z,45.00
2022-10-15T12:53:08.400Z,45.00
2022-10-15T12:54:08.389Z,39.38
2022-10-15T12:55:08.395Z,33.75
2022-10-15T12:56:08.367Z,28.12
2022-10-15T12:57:08.383Z,28.12
2022-10-15T12:58:08.474Z,33.75
2022-10-15T12:59:08.357Z,39.38
2022-10-15T13:00:08.317Z,50.62
2022-10-15T13:01:08.334Z,50.62
2022-10-15T13:02:08.292Z,67.50
2022-10-15T13:03:08.271Z,50.62
2022-10-15T13:04:08.256Z,50.62
2022-10-15T13:05:08.264Z,67.50
2022-10-15T13:06:08.220Z,56.25
2022-10-15T13:07:08.208Z,56.25
2022-10-15T13:08:09.003Z,56.25
2022-10-15T13:09:08.185Z,67.50
2022-10-15T13:10:08.211Z,56.25
2022-10-15T13:11:08.159Z,67.50
2022-10-15T13:12:08.144Z,61.88
2022-10-15T13:13:08.149Z,61.88
2022-10-15T13:14:08.121Z,73.12
2022-10-15T13:15:08.125Z,50.62
2022-10-15T13:16:08.081Z,45.00
2022-10-15T13:17:08.096Z,45.00
2022-10-15T13:18:08.090Z,33.75
2022-10-15T13:19:08.057Z,45.00
2022-10-15T13:20:08.054Z,61.88
2022-10-15T13:21:11.309Z,61.88
2022-10-15T13:22:08.027Z,67.50
2022-10-15T13:23:18.759Z,56.25
2022-10-15T13:24:07.991Z,78.75
2022-10-15T13:25:08.006Z,95.62
2022-10-15T13:26:07.959Z,90.00
2022-10-15T13:27:07.959Z,78.75
2022-10-15T13:28:10.974Z,67.50
2022-10-15T13:29:07.933Z,67.50
2022-10-15T13:30:07.954Z,73.12
2022-10-15T13:31:07.888Z,78.75
2022-10-15T13:32:07.869Z,90.00
2022-10-15T13:33:07.866Z,90.00
2022-10-15T13:34:07.835Z,95.62
2022-10-15T13:35:07.828Z,90.00
2022-10-15T13:36:07.834Z,90.00
2022-10-15T13:37:07.829Z,101.25
2022-10-15T13:38:07.786Z,84.38
2022-10-15T13:39:07.785Z,90.00
2022-10-15T13:40:08.347Z,101.25
2022-10-15T13:41:07.772Z,95.62
2022-10-15T13:42:07.847Z,101.25
2022-10-15T13:43:07.757Z,106.88
2022-10-15T13:44:07.714Z,101.25
2022-10-15T13:45:07.699Z,101.25
2022-10-15T13:46:07.865Z,90.00
2022-10-15T13:47:07.678Z,84.38
2022-10-15T13:48:07.652Z,84.38
2022-10-15T13:49:07.656Z,106.88
2022-10-15T13:50:07.621Z,101.25
2022-10-15T13:51:07.637Z,90.00
2022-10-15T13:52:07.614Z,101.25
2022-10-15T13:53:07.591Z,106.88
2022-10-15T13:54:07.574Z,101.25
2022-10-15T13:55:07.583Z,95.62
2022-10-15T13:56:07.593Z,84.38
2022-10-15T13:57:07.556Z,73.12
2022-10-15T13:58:07.523Z,61.88
2022-10-15T13:59:07.508Z,61.88
2022-10-15T14:00:07.488Z,50.62
2022-10-15T14:01:07.558Z,39.38
2022-10-15T14:02:07.471Z,33.75
2022-10-15T14:03:07.453Z,33.75
2022-10-15T14:04:07.434Z,33.75
2022-10-15T14:05:07.424Z,39.38
2022-10-15T14:06:07.401Z,39.38
2022-10-15T14:07:07.407Z,45.00
2022-10-15T14:08:07.385Z,50.62
2022-10-15T14:09:07.381Z,39.38
2022-10-15T14:10:07.365Z,39.38
2022-10-15T14:11:07.348Z,45.00
2022-10-15T14:12:07.344Z,45.00
2022-10-15T14:13:07.320Z,45.00
2022-10-15T14:14:07.298Z,61.88
2022-10-15T14:15:07.295Z,73.12
2022-10-15T14:16:07.268Z,90.00
2022-10-15T14:17:07.273Z,78.75
2022-10-15T14:18:07.246Z,84.38
2022-10-15T14:19:07.469Z,90.00
2022-10-15T14:20:27.263Z,84.38
2022-10-15T14:21:07.245Z,73.12
2022-10-15T14:22:07.213Z,78.75
2022-10-15T14:23:07.238Z,67.50
2022-10-15T14:24:07.215Z,73.12
2022-10-15T14:25:07.199Z,90.00
2022-10-15T14:26:07.170Z,78.75
2022-10-15T14:27:07.134Z,78.75
2022-10-15T14:28:07.123Z,67.50
2022-10-15T14:29:07.096Z,67.50
2022-10-15T14:30:09.804Z,61.88
2022-10-15T14:31:07.106Z,61.88
2022-10-15T14:32:07.157Z,61.88
2022-10-15T14:33:07.042Z,61.88
2022-10-15T14:34:07.102Z,61.88
2022-10-15T14:35:10.080Z,67.50
2022-10-15T14:36:06.995Z,61.88
2022-10-15T14:37:07.006Z,67.50
2022-10-15T14:38:06.972Z,56.25
2022-10-15T14:39:07.015Z,50.62
2022-10-15T14:40:06.948Z,50.62
2022-10-15T14:41:07.455Z,50.62
2022-10-15T14:42:06.939Z,61.88
2022-10-15T14:43:06.914Z,61.88
2022-10-15T14:44:06.905Z,56.25
2022-10-15T14:45:06.887Z,56.25
2022-10-15T14:46:06.892Z,50.62
2022-10-15T14:47:06.921Z,56.25
2022-10-15T14:48:06.844Z,50.62
2022-10-15T14:49:06.825Z,56.25
2022-10-15T14:50:06.895Z,56.25
2022-10-15T14:51:06.818Z,50.62
2022-10-15T14:52:06.788Z,45.00
2022-10-15T14:53:06.796Z,50.62
2022-10-15T14:54:06.763Z,50.62
2022-10-15T14:55:09.319Z,45.00
2022-10-15T14:56:06.736Z,50.62
2022-10-15T14:57:06.737Z,39.38
2022-10-15T14:58:06.720Z,39.38
2022-10-15T14:59:06.699Z,33.75
2022-10-15T15:00:06.814Z,28.12
2022-10-15T15:01:06.672Z,28.12
2022-10-15T15:02:06.729Z,22.50
2022-10-15T15:03:06.868Z,22.50
2022-10-15T15:04:06.639Z,22.50
2022-10-15T15:05:06.664Z,22.50
2022-10-15T15:06:06.714Z,22.50
2022-10-15T15:07:06.585Z,28.12
2022-10-15T15:08:06.777Z,33.75
2022-10-15T15:09:06.559Z,39.38
2022-10-15T15:10:06.660Z,39.38
2022-10-15T15:11:06.553Z,33.75
2022-10-15T15:12:06.520Z,28.12
2022-10-15T15:13:06.513Z,28.12
2022-10-15T15:14:06.531Z,28.12
2022-10-15T15:15:06.536Z,28.12
2022-10-15T15:16:06.460Z,22.50
2022-10-15T15:17:06.475Z,22.50
2022-10-15T15:18:06.465Z,28.12
2022-10-15T15:19:06.425Z,28.12
2022-10-15T15:20:06.667Z,28.12
2022-10-15T15:21:06.468Z,33.75
2022-10-15T15:22:06.396Z,33.75
2022-10-15T15:23:06.391Z,33.75